Time;durP1;ratioP1;P1;durP2;ratioP2;P2;SDS_P1;SDS_P2;PMS_P1;PMS_P2;Temp;Humidity;BMP_temperature;BMP_pressure;BME280_temperature;BME280_humidity;BME280_pressure;Samples;Min_cycle;Max_cycle;Signal;HPM_P1;HPM_P2
2022/05/30 00:00:10;;;;;;;26.37;18.98;;;26.70;99.90;;;;;;1895909;75;21096;-86
2022/05/30 00:02:42;;;;;;;32.58;20.45;;;26.70;99.90;;;;;;1906824;75;21209;-87
2022/05/30 00:05:13;;;;;;;32.25;20.37;;;26.60;99.90;;;;;;1890265;75;21648;-86
2022/05/30 00:07:45;;;;;;;27.40;19.60;;;26.50;99.90;;;;;;1867141;77;21192;-87
2022/05/30 00:10:19;;;;;;;28.98;20.37;;;26.30;99.90;;;;;;1885180;75;21216;-86
2022/05/30 00:12:50;;;;;;;29.25;20.12;;;26.20;99.90;;;;;;1889721;74;21130;-87
2022/05/30 00:15:23;;;;;;;28.77;20.37;;;26.60;99.90;;;;;;1883395;75;21145;-86
2022/05/30 00:17:56;;;;;;;29.10;21.45;;;26.30;99.90;;;;;;1868071;75;21574;-87
2022/05/30 00:20:27;;;;;;;35.30;20.60;;;26.50;99.90;;;;;;1868942;75;21255;-87
2022/05/30 00:22:58;;;;;;;28.38;20.12;;;26.30;99.90;;;;;;1867382;77;21129;-87
2022/05/30 00:25:29;;;;;;;31.17;20.25;;;26.30;99.90;;;;;;1868156;75;21240;-87
2022/05/30 00:28:00;;;;;;;27.00;19.23;;;26.80;99.90;;;;;;1868043;77;21184;-86
2022/05/30 00:30:31;;;;;;;30.70;20.35;;;26.30;99.90;;;;;;1884002;75;21235;-86
2022/05/30 00:33:02;;;;;;;29.80;20.52;;;26.40;99.90;;;;;;1899618;75;21138;-86
2022/05/30 00:35:40;;;;;;;29.37;19.48;;;26.50;99.90;;;;;;1871189;75;21053;-88
2022/05/30 00:38:12;;;;;;;33.28;19.67;;;26.50;99.90;;;;;;1891660;75;21043;-87
2022/05/30 00:40:44;;;;;;;27.65;20.37;;;26.40;99.90;;;;;;1899190;75;21072;-87
2022/05/30 00:43:17;;;;;;;29.30;19.17;;;26.80;99.90;;;;;;1898957;75;21068;-88
2022/05/30 00:45:48;;;;;;;28.95;18.25;;;26.70;99.90;;;;;;1868246;75;21134;-88
2022/05/30 00:48:22;;;;;;;29.55;19.27;;;26.60;99.90;;;;;;1867075;77;21169;-87
2022/05/30 00:50:55;;;;;;;34.95;18.40;;;26.60;99.90;;;;;;1867309;76;21137;-86
2022/05/30 00:53:26;;;;;;;25.23;17.70;;;26.90;99.90;;;;;;1875889;75;21537;-86
2022/05/30 00:55:59;;;;;;;24.18;16.45;;;26.70;99.90;;;;;;1891727;75;22161;-84
2022/05/30 00:58:33;;;;;;;27.80;17.10;;;27.00;99.90;;;;;;1881730;75;21117;-83
2022/05/30 01:01:05;;;;;;;26.02;16.07;;;26.90;99.90;;;;;;1893288;75;21662;-84
2022/05/30 01:08:41;;;;;;;26.35;16.27;;;26.90;99.90;;;;;;1907024;74;21213;-89
2022/05/30 01:11:12;;;;;;;28.32;14.47;;;26.80;99.90;;;;;;1899618;75;21056;-92
2022/05/30 01:13:43;;;;;;;22.13;13.60;;;26.90;99.90;;;;;;1904707;75;21155;-93
2022/05/30 01:16:14;;;;;;;23.20;12.78;;;26.90;99.90;;;;;;1894428;75;21583;-86
2022/05/30 01:18:48;;;;;;;20.75;12.40;;;27.10;99.90;;;;;;1892642;74;21657;-84
2022/05/30 01:21:21;;;;;;;26.70;12.73;;;27.00;99.90;;;;;;1891696;74;21072;-83
2022/05/30 01:23:55;;;;;;;23.47;12.33;;;27.00;99.90;;;;;;1897904;74;22319;-80
2022/05/30 01:26:28;;;;;;;22.52;11.80;;;27.00;99.90;;;;;;1837342;76;21732;-82
2022/05/30 01:29:01;;;;;;;22.07;11.73;;;27.00;99.90;;;;;;1885995;75;21660;-83
2022/05/30 01:31:34;;;;;;;23.10;11.43;;;27.50;99.90;;;;;;1890748;75;21126;-82
2022/05/30 01:34:06;;;;;;;22.35;12.78;;;27.50;99.90;;;;;;1900708;75;21530;-81
2022/05/30 01:36:37;;;;;;;27.10;11.45;;;27.10;99.90;;;;;;1908898;75;21106;-82
2022/05/30 01:39:08;;;;;;;22.40;10.88;;;27.50;99.90;;;;;;1908339;75;21075;-82
2022/05/30 01:41:39;;;;;;;19.05;11.48;;;27.40;99.90;;;;;;1908386;75;21138;-81
2022/05/30 01:44:10;;;;;;;27.75;11.33;;;27.50;99.90;;;;;;1900703;75;21146;-84
2022/05/30 01:46:48;;;;;;;18.02;10.38;;;27.60;99.90;;;;;;1883225;75;21954;-83
2022/05/30 01:49:15;;;;;;;25.48;10.93;;;27.50;99.90;;;;;;1880830;75;21130;-82
2022/05/30 01:51:46;;;;;;;20.57;11.20;;;27.60;99.90;;;;;;1901745;75;21162;-75
2022/05/30 01:54:17;;;;;;;20.68;10.70;;;27.70;99.90;;;;;;1895419;75;21071;-75
2022/05/30 01:56:48;;;;;;;18.17;10.23;;;27.60;99.90;;;;;;1895508;75;21176;-77
2022/05/30 01:59:20;;;;;;;21.60;9.98;;;27.50;99.90;;;;;;1888332;75;21165;-78
2022/05/30 02:01:51;;;;;;;19.32;10.20;;;27.90;99.90;;;;;;1884152;75;21079;-78
2022/05/30 02:04:23;;;;;;;18.15;9.98;;;27.70;99.90;;;;;;1894120;75;21075;-76
2022/05/30 02:06:54;;;;;;;18.20;9.85;;;27.70;99.90;;;;;;1898015;75;21155;-79
2022/05/30 02:09:25;;;;;;;20.97;10.53;;;27.90;99.90;;;;;;1895663;75;21760;-77
2022/05/30 02:11:56;;;;;;;18.57;10.40;;;27.90;99.90;;;;;;1894846;75;21090;-79
2022/05/30 02:14:27;;;;;;;24.60;10.60;;;27.80;99.90;;;;;;1856183;74;21148;-76
2022/05/30 02:17:01;;;;;;;18.32;10.78;;;28.10;99.90;;;;;;1820718;77;21693;-77
2022/05/30 02:19:33;;;;;;;20.82;11.73;;;28.10;99.90;;;;;;1830331;78;21153;-76
2022/05/30 02:22:07;;;;;;;21.25;10.98;;;28.30;99.90;;;;;;1820731;78;22055;-77
2022/05/30 02:24:39;;;;;;;18.87;11.08;;;28.30;99.90;;;;;;1829937;77;21141;-77
2022/05/30 02:27:13;;;;;;;23.30;10.75;;;28.40;99.90;;;;;;1821451;78;21180;-75
2022/05/30 02:29:48;;;;;;;21.37;9.95;;;28.40;99.90;;;;;;1813089;78;21235;-77
2022/05/30 02:32:19;;;;;;;21.42;10.72;;;28.50;99.90;;;;;;1807156;78;21882;-78
2022/05/30 02:37:23;;;;;;;19.65;9.63;;;28.50;99.90;;;;;;1816706;78;21153;-78
2022/05/30 02:39:54;;;;;;;20.08;10.43;;;28.80;99.90;;;;;;1834706;78;21240;-76
2022/05/30 02:42:25;;;;;;;19.35;9.90;;;28.90;99.90;;;;;;1830336;78;21210;-77
2022/05/30 02:44:56;;;;;;;20.62;10.15;;;29.00;99.90;;;;;;1820991;77;21195;-76
2022/05/30 02:47:27;;;;;;;19.42;10.30;;;28.70;99.90;;;;;;1821792;78;21094;-78
2022/05/30 02:49:58;;;;;;;23.22;10.38;;;29.00;99.90;;;;;;1844723;76;21722;-77
2022/05/30 02:52:31;;;;;;;19.75;10.00;;;28.90;99.90;;;;;;1855276;75;21611;-77
2022/05/30 02:55:02;;;;;;;25.82;9.70;;;28.90;99.90;;;;;;1824994;78;21246;-78
2022/05/30 02:57:33;;;;;;;15.32;9.55;;;28.90;99.90;;;;;;1843565;76;21638;-79
2022/05/30 03:00:05;;;;;;;23.47;10.18;;;28.90;99.90;;;;;;1846436;76;21673;-76
2022/05/30 03:02:37;;;;;;;25.60;10.13;;;28.80;99.90;;;;;;1841125;76;21274;-74
2022/05/30 03:05:08;;;;;;;15.78;9.03;;;28.90;99.90;;;;;;1843850;76;21259;-75
2022/05/30 03:07:41;;;;;;;20.52;8.23;;;28.80;99.90;;;;;;1842042;76;21113;-76
2022/05/30 03:10:12;;;;;;;14.47;7.78;;;29.10;99.90;;;;;;1805703;79;21183;-76
2022/05/30 03:12:44;;;;;;;15.03;9.03;;;29.00;99.90;;;;;;1865814;76;21090;-76
2022/05/30 03:15:15;;;;;;;17.15;8.80;;;29.10;99.90;;;;;;1882346;75;21146;-75
2022/05/30 03:17:46;;;;;;;17.27;9.00;;;29.10;99.90;;;;;;1882497;75;21159;-76
2022/05/30 03:20:21;;;;;;;20.62;9.85;;;28.90;99.90;;;;;;1890644;75;21096;-76
2022/05/30 03:22:52;;;;;;;19.95;9.23;;;29.00;99.90;;;;;;1869038;76;21174;-76
2022/05/30 03:25:23;;;;;;;21.40;10.00;;;29.10;99.90;;;;;;1885451;75;21162;-77
2022/05/30 03:27:56;;;;;;;17.15;8.58;;;29.10;99.90;;;;;;1899087;74;22632;-76
2022/05/30 03:30:27;;;;;;;15.30;8.50;;;29.30;99.90;;;;;;1894194;73;21103;-77
2022/05/30 03:32:58;;;;;;;14.53;8.28;;;29.40;99.90;;;;;;1906356;74;21132;-78
2022/05/30 03:35:33;;;;;;;18.73;8.30;;;29.50;99.90;;;;;;1898949;74;21147;-77
2022/05/30 03:38:05;;;;;;;17.20;7.97;;;30.00;99.90;;;;;;1893083;75;21217;-77
2022/05/30 03:40:37;;;;;;;19.02;9.23;;;29.80;99.90;;;;;;1896954;73;21210;-76
2022/05/30 03:43:10;;;;;;;18.85;8.93;;;30.00;99.90;;;;;;1913282;73;21651;-74
2022/05/30 03:45:43;;;;;;;17.27;9.20;;;30.00;99.90;;;;;;1898829;75;21126;-76
2022/05/30 03:48:16;;;;;;;19.85;8.43;;;30.20;99.90;;;;;;1899783;74;21571;-77
2022/05/30 03:50:48;;;;;;;19.73;8.60;;;30.30;99.90;;;;;;1890055;75;21130;-77
2022/05/30 03:53:19;;;;;;;18.35;8.25;;;30.00;99.90;;;;;;1910468;75;21264;-78
2022/05/30 03:55:50;;;;;;;17.60;8.85;;;30.10;99.90;;;;;;1915789;75;21621;-77
2022/05/30 03:58:21;;;;;;;18.45;8.55;;;30.30;99.90;;;;;;1912270;75;21210;-77
2022/05/30 04:00:53;;;;;;;14.85;7.92;;;30.10;99.90;;;;;;1898279;74;22125;-77
2022/05/30 04:03:23;;;;;;;15.65;7.33;;;30.10;99.90;;;;;;1884017;76;21523;-76
2022/05/30 04:05:54;;;;;;;18.17;8.23;;;30.10;99.90;;;;;;1899155;74;21100;-76
2022/05/30 04:08:26;;;;;;;16.37;8.60;;;30.40;99.90;;;;;;1914255;75;21221;-77
2022/05/30 04:10:57;;;;;;;14.75;8.10;;;30.10;99.90;;;;;;1895137;75;21158;-78
2022/05/30 04:13:29;;;;;;;18.17;8.13;;;30.30;99.90;;;;;;1909098;75;21176;-76
2022/05/30 04:16:01;;;;;;;24.02;8.55;;;30.40;99.90;;;;;;1885379;75;21592;-76
2022/05/30 04:18:33;;;;;;;18.20;9.03;;;30.30;99.90;;;;;;1854205;76;21445;-78
2022/05/30 04:21:05;;;;;;;16.93;8.28;;;30.40;99.90;;;;;;1821478;79;21545;-76
2022/05/30 04:23:40;;;;;;;18.45;8.65;;;30.50;99.90;;;;;;1847497;77;21176;-78
2022/05/30 04:26:14;;;;;;;18.75;8.15;;;30.40;99.90;;;;;;1854534;76;21152;-78
2022/05/30 04:28:45;;;;;;;16.67;8.63;;;30.70;99.90;;;;;;1878714;76;21675;-78
2022/05/30 04:31:17;;;;;;;16.62;8.28;;;30.60;99.90;;;;;;1822622;77;21598;-78
2022/05/30 04:33:48;;;;;;;16.65;9.35;;;30.60;99.90;;;;;;1831074;77;21234;-78
2022/05/30 04:36:19;;;;;;;17.17;9.15;;;30.90;99.90;;;;;;1820747;79;21599;-78
2022/05/30 04:39:09;;;;;;;17.95;8.68;;;30.70;99.90;;;;;;1866710;76;21066;-77
2022/05/30 04:41:41;;;;;;;22.48;9.80;;;30.80;99.90;;;;;;1798074;80;21085;-77
2022/05/30 04:44:12;;;;;;;22.52;8.60;;;30.90;99.90;;;;;;1779489;80;21181;-77
2022/05/30 04:46:44;;;;;;;18.77;8.80;;;31.00;99.90;;;;;;1786289;80;21101;-78
2022/05/30 04:49:14;;;;;;;16.95;8.03;;;31.00;99.90;;;;;;1785989;80;21117;-77
2022/05/30 04:51:46;;;;;;;15.75;9.13;;;31.20;99.90;;;;;;1784515;80;21700;-77
2022/05/30 04:54:17;;;;;;;18.30;8.83;;;31.40;99.90;;;;;;1786170;80;21226;-78
2022/05/30 04:56:49;;;;;;;19.65;7.70;;;31.60;99.90;;;;;;1787674;79;21309;-77
2022/05/30 04:59:20;;;;;;;16.17;8.38;;;31.60;99.90;;;;;;1761407;80;21229;-76
2022/05/30 05:01:51;;;;;;;13.28;7.80;;;31.40;99.90;;;;;;1785821;80;21167;-77
2022/05/30 05:04:22;;;;;;;15.00;7.37;;;32.00;99.90;;;;;;1786367;80;21093;-78
2022/05/30 05:06:53;;;;;;;14.78;7.67;;;31.80;99.90;;;;;;1786897;80;21242;-78
2022/05/30 05:09:27;;;;;;;17.85;8.05;;;31.80;99.90;;;;;;1786102;78;21223;-75
2022/05/30 05:12:00;;;;;;;16.37;7.92;;;32.10;99.90;;;;;;1771261;80;21088;-77
2022/05/30 05:14:31;;;;;;;15.90;7.58;;;32.00;99.90;;;;;;1785417;78;21610;-77
2022/05/30 05:17:02;;;;;;;17.57;7.10;;;32.20;99.90;;;;;;1787389;78;21241;-75
2022/05/30 05:19:34;;;;;;;17.42;8.25;;;32.20;99.90;;;;;;1797595;78;21142;-77
2022/05/30 05:22:06;;;;;;;15.58;7.67;;;32.00;99.90;;;;;;1757642;81;21116;-77
2022/05/30 05:24:37;;;;;;;16.35;6.78;;;32.40;99.00;;;;;;1739187;80;21218;-77
2022/05/30 05:27:09;;;;;;;16.32;7.12;;;32.40;98.40;;;;;;1729926;83;21205;-77
2022/05/30 05:29:40;;;;;;;17.67;7.20;;;32.60;98.20;;;;;;1812346;79;21255;-78
2022/05/30 05:32:11;;;;;;;16.62;6.87;;;32.30;98.80;;;;;;1813687;79;21149;-78
2022/05/30 05:34:42;;;;;;;15.78;7.35;;;32.40;98.40;;;;;;1813624;79;21625;-77
2022/05/30 05:37:12;;;;;;;18.73;7.67;;;32.00;98.90;;;;;;1798801;79;21165;-77
2022/05/30 05:39:44;;;;;;;15.28;7.12;;;31.80;98.00;;;;;;1799110;79;21172;-77
2022/05/30 05:42:21;;;;;;;19.77;7.33;;;31.80;98.40;;;;;;1825446;78;21589;-75
2022/05/30 05:44:51;;;;;;;17.42;7.87;;;31.60;98.60;;;;;;1810900;79;21260;-78
2022/05/30 05:47:23;;;;;;;20.08;7.70;;;31.50;99.40;;;;;;1788396;78;21658;-79
2022/05/30 05:49:55;;;;;;;17.85;7.60;;;31.70;99.40;;;;;;1835671;78;21162;-77
2022/05/30 05:52:42;;;;;;;13.95;7.60;;;31.40;99.40;;;;;;1837595;78;21162;-77
2022/05/30 05:55:29;;;;;;;18.73;8.38;;;31.50;99.60;;;;;;1842504;78;21150;-77
2022/05/30 05:58:00;;;;;;;14.63;7.10;;;31.40;99.60;;;;;;1837106;78;21131;-78
2022/05/30 06:00:32;;;;;;;16.65;8.35;;;31.40;99.70;;;;;;1812487;79;21170;-77
2022/05/30 06:03:03;;;;;;;19.05;9.50;;;31.70;99.70;;;;;;1782192;79;21217;-76
2022/05/30 06:05:34;;;;;;;16.10;7.60;;;31.40;99.90;;;;;;1807273;79;21239;-78
2022/05/30 06:08:05;;;;;;;15.93;7.33;;;31.30;99.90;;;;;;1782629;80;21554;-77
2022/05/30 06:11:05;;;;;;;14.55;7.85;;;31.50;99.30;;;;;;1797913;79;21236;-77
2022/05/30 06:13:09;;;;;;;16.12;7.70;;;31.40;99.50;;;;;;1810866;78;21151;-77
2022/05/30 06:15:40;;;;;;;13.70;7.28;;;31.20;98.90;;;;;;1815302;79;21584;-77
2022/05/30 06:18:11;;;;;;;14.83;7.97;;;31.50;98.60;;;;;;1815128;79;21139;-77
2022/05/30 06:20:42;;;;;;;17.73;8.05;;;31.40;99.00;;;;;;1809381;79;21160;-78
2022/05/30 06:23:13;;;;;;;18.73;8.75;;;31.50;98.80;;;;;;1803614;79;21681;-78
2022/05/30 06:25:44;;;;;;;20.68;10.95;;;31.60;98.80;;;;;;1810188;79;21118;-77
2022/05/30 06:28:15;;;;;;;22.22;10.68;;;31.80;99.70;;;;;;1873818;76;21621;-77
2022/05/30 06:30:45;;;;;;;16.82;8.00;;;31.90;98.00;;;;;;1855362;76;21241;-77
2022/05/30 06:33:16;;;;;;;17.45;7.60;;;32.10;97.80;;;;;;1816727;78;21208;-76
2022/05/30 06:35:47;;;;;;;25.97;8.93;;;32.00;98.70;;;;;;1797561;78;21210;-76
2022/05/30 06:38:20;;;;;;;16.95;8.23;;;32.00;98.80;;;;;;1842765;78;21218;-76
2022/05/30 06:40:50;;;;;;;21.97;8.33;;;31.80;98.50;;;;;;1839908;78;21154;-77
2022/05/30 06:43:27;;;;;;;17.65;7.80;;;31.70;98.60;;;;;;1841860;78;21095;-77
2022/05/30 06:46:02;;;;;;;15.23;8.98;;;31.60;98.70;;;;;;1842695;78;21178;-77
2022/05/30 06:48:33;;;;;;;15.32;8.48;;;31.60;98.90;;;;;;1842866;78;21146;-77
2022/05/30 06:51:06;;;;;;;20.32;8.40;;;31.80;99.20;;;;;;1841989;78;21185;-77
2022/05/30 06:53:40;;;;;;;14.30;7.78;;;31.60;98.90;;;;;;1810866;78;22008;-78
2022/05/30 06:56:13;;;;;;;12.03;7.55;;;31.90;99.20;;;;;;1840851;78;21135;-78
2022/05/30 06:58:46;;;;;;;21.42;9.70;;;31.90;98.60;;;;;;1842406;77;21170;-78
2022/05/30 07:01:19;;;;;;;24.45;14.35;;;31.90;98.40;;;;;;1804660;78;21158;-77
2022/05/30 07:03:50;;;;;;;19.05;8.53;;;31.90;98.20;;;;;;1824378;77;21194;-76
2022/05/30 07:06:23;;;;;;;18.05;7.10;;;31.80;98.20;;;;;;1827349;77;21121;-77
2022/05/30 07:08:55;;;;;;;14.43;7.08;;;31.90;99.40;;;;;;1824946;78;21148;-78
2022/05/30 07:11:26;;;;;;;16.55;6.83;;;32.00;97.60;;;;;;1828267;78;21636;-77
2022/05/30 07:13:57;;;;;;;13.98;7.35;;;31.90;97.40;;;;;;1821378;77;21197;-76
2022/05/30 07:16:28;;;;;;;14.35;6.85;;;31.90;97.30;;;;;;1823056;77;21813;-77
2022/05/30 07:18:59;;;;;;;14.10;6.80;;;32.00;97.60;;;;;;1814831;78;21123;-76
2022/05/30 07:21:31;;;;;;;15.70;6.42;;;32.30;96.20;;;;;;1823257;78;21652;-76
2022/05/30 07:24:04;;;;;;;17.62;7.15;;;32.00;96.10;;;;;;1844329;76;21583;-76
2022/05/30 07:26:35;;;;;;;14.50;7.03;;;32.10;97.50;;;;;;1822761;76;21620;-76
2022/05/30 07:29:06;;;;;;;14.63;6.85;;;32.10;97.40;;;;;;1805136;78;21582;-77
2022/05/30 07:31:39;;;;;;;16.32;7.20;;;32.00;97.20;;;;;;1834026;77;21178;-74
2022/05/30 07:34:10;;;;;;;13.78;6.87;;;32.00;96.90;;;;;;1804639;78;21630;-78
2022/05/30 07:36:42;;;;;;;15.88;6.60;;;32.10;97.40;;;;;;1847484;76;21548;-76
2022/05/30 07:39:12;;;;;;;14.18;6.72;;;32.30;96.60;;;;;;1834924;78;21584;-76
2022/05/30 07:41:43;;;;;;;15.78;5.92;;;32.40;95.10;;;;;;1835045;78;21162;-76
2022/05/30 07:44:14;;;;;;;16.45;6.25;;;32.50;94.50;;;;;;1781741;80;21525;-74
2022/05/30 07:46:45;;;;;;;20.20;6.25;;;32.40;93.80;;;;;;1787439;80;21237;-78
2022/05/30 07:49:18;;;;;;;16.93;6.97;;;32.50;94.80;;;;;;1822787;78;21163;-76
2022/05/30 07:51:49;;;;;;;17.50;6.72;;;32.60;94.20;;;;;;1828685;77;21697;-76
2022/05/30 07:54:23;;;;;;;13.95;6.22;;;32.80;94.30;;;;;;1821960;78;21162;-76
2022/05/30 07:56:56;;;;;;;11.93;6.28;;;32.90;94.90;;;;;;1825159;78;21772;-76
2022/05/30 07:59:27;;;;;;;12.37;6.17;;;32.70;94.50;;;;;;1823476;78;21144;-76
2022/05/30 08:02:00;;;;;;;12.85;6.08;;;32.80;94.20;;;;;;1786302;78;21727;-76
2022/05/30 08:04:31;;;;;;;15.08;5.97;;;32.60;94.30;;;;;;1804059;78;21838;-75
2022/05/30 08:07:06;;;;;;;14.05;6.33;;;32.70;94.70;;;;;;1786388;79;21667;-76
2022/05/30 08:09:38;;;;;;;12.93;5.70;;;32.80;94.40;;;;;;1781417;80;21132;-76
2022/05/30 08:12:09;;;;;;;15.10;6.15;;;32.80;94.60;;;;;;1775295;80;21150;-75
2022/05/30 08:14:40;;;;;;;12.05;6.28;;;32.70;94.90;;;;;;1791671;80;21579;-76
2022/05/30 08:17:11;;;;;;;17.85;5.60;;;32.60;94.20;;;;;;1778943;80;21248;-75
2022/05/30 08:19:42;;;;;;;15.63;6.30;;;32.50;94.30;;;;;;1793651;78;21150;-75
2022/05/30 08:22:15;;;;;;;14.83;6.78;;;32.50;94.10;;;;;;1807308;78;21170;-78
2022/05/30 08:24:48;;;;;;;16.67;5.60;;;32.60;94.50;;;;;;1783632;79;21131;-76
2022/05/30 08:27:23;;;;;;;14.20;6.10;;;32.60;95.10;;;;;;1826828;77;21225;-76
2022/05/30 08:29:54;;;;;;;16.62;6.08;;;32.80;94.80;;;;;;1820491;78;21157;-74
2022/05/30 08:32:25;;;;;;;10.85;5.62;;;32.60;94.10;;;;;;1803500;78;21145;-75
2022/05/30 08:34:58;;;;;;;17.73;6.22;;;32.60;93.90;;;;;;1828585;78;21178;-74
2022/05/30 08:37:34;;;;;;;15.95;6.37;;;32.40;94.10;;;;;;1785200;80;21696;-73
2022/05/30 08:42:39;;;;;;;18.30;9.90;;;32.30;94.60;;;;;;1811989;77;21611;-75
2022/05/30 08:45:14;;;;;;;12.65;6.08;;;32.30;94.50;;;;;;1822335;77;21121;-75
2022/05/30 08:47:47;;;;;;;14.50;6.40;;;32.30;94.50;;;;;;1794428;79;21159;-77
2022/05/30 08:50:27;;;;;;;15.90;5.80;;;32.50;94.40;;;;;;1792732;78;21205;-75
2022/05/30 08:53:00;;;;;;;17.52;7.12;;;32.30;95.60;;;;;;1789696;79;21175;-74
2022/05/30 08:55:34;;;;;;;14.35;6.33;;;32.30;94.60;;;;;;1793930;79;21694;-75
2022/05/30 08:58:07;;;;;;;17.55;6.85;;;32.40;94.60;;;;;;1790519;78;21123;-77
2022/05/30 09:00:41;;;;;;;13.53;6.28;;;32.20;94.40;;;;;;1783156;79;21594;-76
2022/05/30 09:03:15;;;;;;;17.65;8.03;;;32.50;94.70;;;;;;1788229;78;21960;-76
2022/05/30 09:05:48;;;;;;;17.00;6.42;;;32.20;94.20;;;;;;1824711;78;21115;-77
2022/05/30 09:08:22;;;;;;;14.95;6.83;;;32.50;94.80;;;;;;1816666;78;21151;-76
2022/05/30 09:10:55;;;;;;;13.10;6.25;;;32.30;94.10;;;;;;1820297;78;21116;-76
2022/05/30 09:13:29;;;;;;;17.85;6.53;;;32.20;94.60;;;;;;1825721;78;21258;-76
2022/05/30 09:16:03;;;;;;;18.95;8.28;;;32.40;94.50;;;;;;1782957;80;21197;-76
2022/05/30 09:18:37;;;;;;;17.50;6.95;;;32.10;94.70;;;;;;1829780;77;21112;-75
2022/05/30 09:21:08;;;;;;;13.20;6.30;;;32.30;94.50;;;;;;1824206;77;21127;-75
2022/05/30 09:23:39;;;;;;;16.62;7.03;;;32.20;94.30;;;;;;1785535;78;21806;-75
2022/05/30 09:26:13;;;;;;;13.78;6.45;;;32.50;94.70;;;;;;1797029;78;21257;-76
2022/05/30 09:28:47;;;;;;;14.65;6.97;;;32.30;94.40;;;;;;1819777;77;21167;-78
2022/05/30 09:31:20;;;;;;;13.93;6.20;;;32.40;94.50;;;;;;1811876;77;21307;-77
2022/05/30 09:33:54;;;;;;;13.10;6.25;;;32.20;94.90;;;;;;1823093;77;21244;-79
2022/05/30 09:36:31;;;;;;;13.72;6.05;;;32.20;94.90;;;;;;1815529;77;21213;-76
2022/05/30 09:39:04;;;;;;;17.62;8.18;;;32.20;95.00;;;;;;1823521;77;21193;-75
2022/05/30 09:41:38;;;;;;;13.95;8.00;;;32.20;95.20;;;;;;1806540;79;21115;-76
2022/05/30 09:44:11;;;;;;;16.48;6.95;;;32.20;95.40;;;;;;1821687;77;21109;-76
2022/05/30 09:46:45;;;;;;;11.65;6.08;;;32.30;94.80;;;;;;1809358;79;21456;-75
2022/05/30 09:49:18;;;;;;;14.47;6.62;;;32.20;95.10;;;;;;1816641;77;21259;-74
2022/05/30 09:51:51;;;;;;;13.45;6.03;;;32.30;94.90;;;;;;1814858;77;21163;-77
2022/05/30 09:54:38;;;;;;;15.55;6.60;;;32.10;95.30;;;;;;1822153;77;21171;-77
2022/05/30 09:57:11;;;;;;;11.65;6.00;;;32.20;95.90;;;;;;1809730;79;21660;-75
2022/05/30 09:59:44;;;;;;;11.90;7.15;;;32.40;95.60;;;;;;1784726;79;21216;-76
2022/05/30 10:02:18;;;;;;;18.55;6.20;;;32.10;95.20;;;;;;1809075;77;21162;-79
2022/05/30 10:04:52;;;;;;;14.35;6.40;;;32.20;95.10;;;;;;1810071;79;21659;-80
2022/05/30 10:07:24;;;;;;;18.00;6.90;;;32.30;95.10;;;;;;1804848;79;21189;-81
2022/05/30 10:09:58;;;;;;;17.10;6.70;;;32.00;95.20;;;;;;1791875;79;21711;-79
2022/05/30 10:12:31;;;;;;;16.45;6.80;;;32.00;95.40;;;;;;1813585;79;21153;-79
2022/05/30 10:15:06;;;;;;;15.65;6.85;;;31.90;95.70;;;;;;1812461;77;21702;-81
2022/05/30 10:17:37;;;;;;;13.75;6.58;;;32.20;95.50;;;;;;1812608;79;21165;-78
2022/05/30 10:20:10;;;;;;;19.10;7.10;;;32.00;95.60;;;;;;1803722;79;21157;-79
2022/05/30 10:30:28;;;;;;;14.65;6.47;;;32.00;95.30;;;;;;1807619;78;21243;-78
2022/05/30 10:33:05;;;;;;;15.25;6.90;;;31.90;95.00;;;;;;1793402;78;21174;-79
2022/05/30 10:35:39;;;;;;;15.58;6.37;;;32.10;95.00;;;;;;1810044;78;21674;-79
2022/05/30 10:38:12;;;;;;;14.98;6.78;;;32.00;95.10;;;;;;1810999;78;21183;-80
2022/05/30 10:40:46;;;;;;;18.85;7.87;;;32.00;95.60;;;;;;1809852;78;21168;-79
2022/05/30 10:43:19;;;;;;;16.75;6.65;;;31.90;95.40;;;;;;1788377;78;21089;-78
2022/05/30 10:45:53;;;;;;;12.78;6.65;;;32.00;96.20;;;;;;1792947;79;21260;-78
2022/05/30 10:48:26;;;;;;;23.05;7.42;;;31.90;96.00;;;;;;1811488;77;21167;-79
2022/05/30 10:51:01;;;;;;;12.75;6.55;;;31.80;95.50;;;;;;1804233;78;21247;-79
2022/05/30 10:53:36;;;;;;;12.90;6.85;;;31.80;96.00;;;;;;1828219;78;21091;-78
2022/05/30 10:56:09;;;;;;;15.23;7.12;;;31.80;95.80;;;;;;1798761;78;21189;-79
2022/05/30 10:58:43;;;;;;;14.65;6.83;;;31.70;95.80;;;;;;1800094;78;21646;-78
2022/05/30 11:01:17;;;;;;;16.48;7.87;;;31.90;96.10;;;;;;1817875;77;21258;-79
2022/05/30 11:03:50;;;;;;;15.35;7.03;;;31.90;95.70;;;;;;1816905;78;21139;-78
2022/05/30 11:06:25;;;;;;;15.80;7.50;;;31.60;95.80;;;;;;1816814;78;21091;-77
2022/05/30 11:08:59;;;;;;;17.62;6.92;;;31.70;95.80;;;;;;1817058;78;21618;-79
2022/05/30 11:11:33;;;;;;;12.90;6.78;;;31.90;95.60;;;;;;1811327;79;21532;-78
2022/05/30 11:14:09;;;;;;;14.87;6.78;;;31.60;95.40;;;;;;1815980;79;21496;-87
2022/05/30 11:16:44;;;;;;;14.85;6.92;;;31.80;95.30;;;;;;1815440;78;21251;-85
2022/05/30 11:19:18;;;;;;;18.05;10.25;;;31.70;95.70;;;;;;1819032;78;21166;-86
2022/05/30 11:21:54;;;;;;;14.13;6.83;;;31.50;95.60;;;;;;1814025;79;21535;-86
2022/05/30 11:24:27;;;;;;;17.42;7.45;;;31.60;95.60;;;;;;1816577;78;21593;-86
2022/05/30 11:27:00;;;;;;;15.72;7.22;;;31.50;95.40;;;;;;1819270;79;21819;-85
2022/05/30 11:29:34;;;;;;;19.32;7.65;;;31.70;95.80;;;;;;1816730;78;22166;-87
2022/05/30 11:32:07;;;;;;;16.57;7.40;;;31.50;96.00;;;;;;1816311;78;21638;-84
2022/05/30 11:34:42;;;;;;;16.87;7.42;;;31.50;96.00;;;;;;1817054;78;21220;-85
2022/05/30 11:37:18;;;;;;;16.40;7.97;;;31.40;96.00;;;;;;1803503;79;21163;-84
2022/05/30 11:39:51;;;;;;;17.02;7.45;;;31.60;96.00;;;;;;1817692;78;21139;-85
2022/05/30 11:42:31;;;;;;;20.10;8.20;;;31.40;95.90;;;;;;1828685;78;21200;-86
2022/05/30 11:45:04;;;;;;;19.35;9.23;;;31.50;96.10;;;;;;1821121;78;21176;-85
2022/05/30 11:47:38;;;;;;;19.25;8.63;;;31.40;96.10;;;;;;1822955;78;21145;-84
2022/05/30 11:50:11;;;;;;;23.15;9.75;;;31.60;96.30;;;;;;1787018;77;21292;-85
2022/05/30 11:52:44;;;;;;;18.05;8.08;;;31.40;96.10;;;;;;1844977;76;21177;-85
2022/05/30 11:55:20;;;;;;;19.02;8.30;;;31.40;96.20;;;;;;1844722;77;21158;-84
2022/05/30 11:57:52;;;;;;;18.30;8.93;;;31.40;96.10;;;;;;1815236;79;21188;-84
2022/05/30 12:00:26;;;;;;;15.78;7.80;;;31.30;96.30;;;;;;1809248;78;21698;-85
2022/05/30 12:03:04;;;;;;;15.68;8.53;;;31.20;96.40;;;;;;1818442;79;21610;-86
2022/05/30 12:05:34;;;;;;;18.65;8.33;;;31.30;96.30;;;;;;1835637;77;21119;-85
2022/05/30 12:08:10;;;;;;;21.20;8.55;;;31.20;96.40;;;;;;1820235;77;21182;-83
2022/05/30 12:10:44;;;;;;;14.70;7.80;;;31.20;96.70;;;;;;1838664;77;21232;-85
2022/05/30 12:13:22;;;;;;;18.62;9.00;;;31.30;96.90;;;;;;1848143;77;21186;-85
2022/05/30 12:15:52;;;;;;;15.25;7.60;;;31.20;96.90;;;;;;1848308;77;21174;-83
2022/05/30 12:26:27;;;;;;;18.80;8.78;;;31.10;97.30;;;;;;1845563;77;21072;-86
2022/05/30 12:29:21;;;;;;;12.60;6.65;;;31.00;97.10;;;;;;1838769;78;21143;-85
2022/05/30 12:32:16;;;;;;;11.88;5.92;;;31.10;96.60;;;;;;1832370;78;21177;-84
2022/05/30 12:37:34;;;;;;;14.93;5.35;;;30.50;97.40;;;;;;1844438;77;21630;-84
2022/05/30 12:40:10;;;;;;;9.98;5.10;;;30.30;97.60;;;;;;1828003;78;21653;-83
2022/05/30 12:42:44;;;;;;;13.35;5.60;;;30.10;97.90;;;;;;1845657;77;21614;-84
2022/05/30 12:45:18;;;;;;;17.50;5.28;;;30.00;98.50;;;;;;1846051;78;21163;-85
2022/05/30 12:47:54;;;;;;;15.48;5.50;;;29.70;99.50;;;;;;1838391;77;21249;-85
2022/05/30 12:50:31;;;;;;;10.15;4.90;;;29.30;99.90;;;;;;1835534;76;21256;-84
2022/05/30 12:53:05;;;;;;;11.83;5.95;;;29.00;99.90;;;;;;1848852;77;21127;-84
2022/05/30 12:55:40;;;;;;;12.78;5.67;;;28.90;99.90;;;;;;1853943;76;21161;-85
2022/05/30 12:58:21;;;;;;;11.57;5.92;;;28.80;99.90;;;;;;1867790;76;21685;-84
2022/05/30 13:00:55;;;;;;;10.88;5.55;;;29.00;99.90;;;;;;1811618;79;21161;-85
2022/05/30 13:03:29;;;;;;;14.13;5.95;;;28.70;99.90;;;;;;1860687;76;21156;-84
2022/05/30 13:06:05;;;;;;;10.55;5.22;;;28.60;99.90;;;;;;1856394;76;21276;-84
2022/05/30 13:08:42;;;;;;;12.33;6.10;;;28.60;99.90;;;;;;1833110;76;21190;-87
2022/05/30 13:11:21;;;;;;;11.68;5.67;;;28.60;99.90;;;;;;1825282;76;21178;-86
2022/05/30 13:13:54;;;;;;;12.73;6.20;;;28.60;99.90;;;;;;1839496;76;21151;-86
2022/05/30 13:16:27;;;;;;;12.30;6.47;;;28.60;99.90;;;;;;1808888;78;21142;-83
2022/05/30 13:18:59;;;;;;;14.28;5.95;;;28.30;99.90;;;;;;1804730;79;21220;-85
2022/05/30 13:21:34;;;;;;;13.95;6.20;;;28.40;99.90;;;;;;1836589;78;21729;-86
2022/05/30 13:24:10;;;;;;;15.38;6.28;;;28.20;99.90;;;;;;1839956;78;21677;-86
2022/05/30 13:26:41;;;;;;;16.02;6.15;;;28.30;99.90;;;;;;1789972;78;21163;-86
2022/05/30 13:29:13;;;;;;;14.65;6.70;;;28.50;99.90;;;;;;1802732;78;21148;-85
2022/05/30 13:31:50;;;;;;;15.80;6.22;;;28.40;99.90;;;;;;1804775;78;21252;-87